Lake Joy, Washington
Current Conditions -  °F | °C
As of 6:53 PM on Friday 19 Dec 2014 (Local Time) from KRNT Reporting Station
Overcast Overcast  
Wind Chill: 47°   Ceiling: 5000
Heat Index: 47°   Visibility: 10mi
Dew Point: 41°   Wind: 3mph
Humidity: 80%   Direction: 160°SSE
Pressure: 29.95"   Gusts: NA
Location:  47.651°N, 121.896°W
Report Text: KRNT 200253Z 16003KT 10SM BKN050 OVC070 08/05 A2995 RMK AO2 SLP147 T00830050 55000
Loading
Personal Weather Stations






























Interactive Weather Map New forecast layout! Learn more

10-Day Weather Forecast

Advertisements
Track Severe Weather on mobile